createdAt,value
2023-03-03T00:02:38.826Z,67.07
2023-03-03T00:07:37.602Z,67.25
2023-03-03T00:12:48.503Z,67.30
2023-03-03T00:17:48.971Z,67.90
2023-03-03T00:22:47.938Z,67.48
2023-03-03T00:27:46.701Z,67.68
2023-03-03T00:32:50.438Z,67.84
2023-03-03T00:37:56.982Z,67.74
2023-03-03T00:42:58.528Z,67.92
2023-03-03T00:47:59.525Z,67.83
2023-03-03T00:53:03.816Z,67.68
2023-03-03T00:58:02.936Z,67.43
2023-03-03T01:03:09.294Z,67.77
2023-03-03T01:08:08.208Z,67.93
2023-03-03T01:13:07.940Z,67.86
2023-03-03T01:18:08.783Z,68.04
2023-03-03T01:23:08.098Z,67.39
2023-03-03T01:28:07.187Z,67.52
2023-03-03T01:33:07.541Z,67.85
2023-03-03T01:38:06.387Z,67.67
2023-03-03T01:43:05.423Z,67.81
2023-03-03T01:48:11.753Z,68.16
2023-03-03T01:53:17.218Z,67.77
2023-03-03T01:58:21.082Z,68.05
2023-03-03T02:03:23.688Z,68.25
2023-03-03T02:08:29.202Z,68.04
2023-03-03T02:13:28.063Z,68.62
2023-03-03T02:18:28.974Z,68.67
2023-03-03T02:23:35.717Z,68.34
2023-03-03T02:28:37.797Z,68.24
2023-03-03T02:33:39.367Z,68.42
2023-03-03T02:38:45.669Z,68.21
2023-03-03T02:43:52.143Z,68.27
2023-03-03T02:48:51.233Z,68.32
2023-03-03T02:53:51.037Z,68.68
2023-03-03T02:58:51.628Z,69.87
2023-03-03T03:03:51.092Z,69.85
2023-03-03T03:08:53.128Z,69.62
2023-03-03T03:13:54.573Z,70.35
2023-03-03T03:24:09.542Z,71.65
2023-03-03T03:29:12.455Z,71.28
2023-03-03T03:34:11.532Z,71.32
2023-03-03T03:39:10.769Z,70.84
2023-03-03T03:44:15.372Z,70.91
2023-03-03T03:49:14.791Z,70.51
2023-03-03T03:54:14.195Z,69.92
2023-03-03T03:59:15.581Z,69.70
2023-03-03T04:04:14.900Z,69.57
2023-03-03T04:09:14.727Z,69.34
2023-03-03T04:14:15.764Z,69.65
2023-03-03T04:19:14.976Z,69.46
2023-03-03T04:24:15.196Z,69.26
2023-03-03T04:29:49.991Z,69.27
2023-03-03T04:34:53.144Z,70.03
2023-03-03T04:39:58.306Z,69.91
2023-03-03T04:44:58.863Z,69.65
2023-03-03T04:49:57.906Z,69.55
2023-03-03T04:54:57.252Z,69.69
2023-03-03T04:59:58.107Z,69.58
2023-03-03T05:04:57.649Z,69.56
2023-03-03T05:09:56.470Z,70.27
2023-03-03T05:14:55.351Z,70.33
2023-03-03T05:19:57.360Z,70.56
2023-03-03T05:24:56.163Z,70.27
2023-03-03T05:29:54.914Z,70.42
2023-03-03T05:34:55.067Z,70.13
2023-03-03T05:39:53.889Z,69.93
2023-03-03T05:44:52.758Z,69.60
2023-03-03T05:50:06.701Z,69.67
2023-03-03T05:55:09.166Z,69.41
2023-03-03T06:00:20.025Z,69.19
2023-03-03T06:05:20.399Z,68.90
2023-03-03T06:10:19.332Z,69.20
2023-03-03T06:15:38.962Z,69.24
2023-03-03T06:20:39.819Z,69.35
2023-03-03T06:25:40.515Z,69.18
2023-03-03T06:30:39.330Z,69.42
2023-03-03T06:35:39.638Z,69.48
2023-03-03T06:40:38.501Z,69.50
2023-03-03T06:45:37.322Z,70.50
2023-03-03T06:50:36.167Z,70.27
2023-03-03T06:55:36.339Z,70.78
2023-03-03T07:00:36.548Z,70.28
2023-03-03T07:05:35.504Z,70.24
2023-03-03T07:10:34.362Z,70.15
2023-03-03T07:15:37.131Z,70.08
2023-03-03T07:20:40.118Z,71.11
2023-03-03T07:25:39.429Z,72.00
2023-03-03T07:30:39.953Z,70.92
2023-03-03T07:35:42.047Z,70.24
2023-03-03T07:40:48.839Z,72.47
2023-03-03T07:45:49.358Z,72.38
2023-03-03T07:50:50.042Z,71.86
2023-03-03T07:55:48.844Z,71.19
2023-03-03T08:01:29.532Z,70.34
2023-03-03T08:06:49.531Z,70.59
2023-03-03T08:11:52.904Z,72.06
2023-03-03T08:16:51.400Z,70.42
2023-03-03T08:21:51.492Z,69.93
2023-03-03T08:26:51.082Z,70.54
2023-03-03T08:31:49.851Z,70.30
2023-03-03T08:36:49.666Z,69.20
2023-03-03T08:41:49.827Z,68.10
2023-03-03T08:46:54.996Z,67.86
2023-03-03T08:51:54.750Z,67.91
2023-03-03T08:56:54.951Z,68.03
2023-03-03T09:01:53.827Z,67.00
2023-03-03T09:06:52.590Z,65.38
2023-03-03T09:11:51.495Z,64.52
2023-03-03T09:16:53.374Z,64.25
2023-03-03T09:21:55.018Z,62.04
2023-03-03T09:26:56.183Z,59.48
2023-03-03T09:31:59.096Z,58.76
2023-03-03T09:37:00.252Z,57.05
2023-03-03T09:42:14.078Z,58.41
2023-03-03T09:47:31.168Z,58.95
2023-03-03T09:52:41.140Z,60.05
2023-03-03T09:58:09.970Z,59.47
2023-03-03T10:03:58.281Z,59.01
2023-03-03T10:09:31.905Z,61.11
2023-03-03T10:14:41.116Z,60.81
2023-03-03T10:19:47.946Z,62.04
2023-03-03T10:24:57.868Z,61.27
2023-03-03T10:30:03.973Z,61.06
2023-03-03T10:35:20.630Z,61.52
2023-03-03T10:40:28.394Z,60.88
2023-03-03T10:45:52.092Z,61.40
2023-03-03T10:51:01.562Z,61.11
2023-03-03T10:56:16.557Z,61.15
2023-03-03T11:01:26.905Z,61.24
2023-03-03T11:06:35.176Z,62.02
2023-03-03T11:11:43.607Z,62.52
2023-03-03T11:16:50.769Z,62.69
2023-03-03T11:21:57.567Z,63.77
2023-03-03T11:27:12.478Z,62.66
2023-03-03T11:32:22.989Z,61.83
2023-03-03T11:37:30.179Z,63.04
2023-03-03T11:42:37.072Z,62.39
2023-03-03T11:47:43.590Z,61.78
2023-03-03T11:52:50.141Z,61.17
2023-03-03T11:57:57.294Z,62.33
2023-03-03T12:03:11.520Z,63.04
2023-03-03T12:08:23.362Z,61.74
2023-03-03T12:13:28.154Z,60.79
2023-03-03T12:18:43.354Z,61.25
2023-03-03T12:24:04.510Z,60.49
2023-03-03T12:29:13.805Z,63.60
2023-03-03T12:34:21.038Z,63.17
2023-03-03T12:39:37.972Z,62.34
2023-03-03T12:44:45.992Z,64.18
2023-03-03T12:50:06.587Z,62.91
2023-03-03T12:55:20.877Z,63.45
2023-03-03T13:00:26.783Z,63.01
2023-03-03T13:05:30.255Z,63.45
2023-03-03T13:10:39.044Z,64.49
2023-03-03T13:15:54.856Z,64.42
2023-03-03T13:21:01.561Z,64.40
2023-03-03T13:26:09.266Z,64.74
2023-03-03T13:31:14.235Z,64.50
2023-03-03T13:36:16.191Z,66.24
2023-03-03T13:41:24.935Z,66.80
2023-03-03T13:46:35.319Z,67.19
2023-03-03T13:51:43.584Z,66.58
2023-03-03T13:57:05.398Z,66.91
2023-03-03T14:02:26.201Z,66.93
2023-03-03T14:07:29.735Z,66.59
2023-03-03T14:12:42.125Z,66.99
2023-03-03T14:17:55.078Z,67.82
2023-03-03T14:22:57.650Z,68.32
2023-03-03T14:28:05.943Z,67.53
2023-03-03T14:33:24.072Z,67.66
2023-03-03T14:38:26.006Z,68.65
2023-03-03T14:43:28.112Z,67.77
2023-03-03T14:48:27.773Z,69.19
2023-03-03T14:53:34.446Z,70.29
2023-03-03T14:58:40.559Z,70.65
2023-03-03T15:03:39.388Z,69.54
2023-03-03T15:08:38.288Z,70.93
2023-03-03T15:13:40.005Z,69.43
2023-03-03T15:19:00.555Z,69.98
2023-03-03T15:24:06.839Z,70.51
2023-03-03T15:29:12.649Z,71.62
2023-03-03T15:34:30.956Z,72.86
2023-03-03T15:39:42.874Z,73.62
2023-03-03T15:44:57.400Z,75.25
2023-03-03T15:50:07.429Z,76.59
2023-03-03T15:55:27.497Z,77.00
2023-03-03T16:00:38.880Z,77.49
2023-03-03T16:05:47.665Z,78.25
2023-03-03T16:10:58.364Z,78.86
2023-03-03T16:16:12.468Z,80.01
2023-03-03T16:21:30.865Z,81.09
2023-03-03T16:26:40.190Z,83.52
2023-03-03T16:31:49.068Z,82.12
2023-03-03T16:37:01.637Z,82.59
2023-03-03T16:42:07.118Z,82.15
2023-03-03T16:47:20.399Z,81.66
2023-03-03T16:52:26.784Z,82.14
2023-03-03T16:57:33.703Z,82.84
2023-03-03T17:03:08.254Z,84.46
2023-03-03T17:08:39.223Z,84.00
2023-03-03T17:14:08.830Z,83.27
2023-03-03T17:19:18.970Z,83.47
2023-03-03T17:24:25.449Z,83.85
2023-03-03T17:29:48.712Z,84.70
2023-03-03T17:35:06.661Z,85.27
2023-03-03T17:40:19.605Z,84.82
2023-03-03T17:45:21.592Z,84.63
2023-03-03T17:50:43.281Z,85.49
2023-03-03T17:56:04.735Z,85.75
2023-03-03T18:01:16.560Z,85.34
2023-03-03T18:06:55.914Z,88.72
2023-03-03T18:12:13.173Z,86.68
2023-03-03T18:17:50.269Z,86.78
2023-03-03T18:22:53.932Z,87.54
2023-03-03T18:28:21.368Z,87.64
2023-03-03T18:33:37.865Z,86.75
2023-03-03T18:38:41.777Z,85.52
2023-03-03T18:43:58.234Z,87.48
2023-03-03T18:49:03.473Z,88.83
2023-03-03T18:54:07.609Z,90.11
2023-03-03T18:59:10.179Z,89.65
2023-03-03T19:04:25.473Z,91.18
2023-03-03T19:09:52.591Z,89.26
2023-03-03T19:14:51.439Z,88.20
2023-03-03T19:20:07.070Z,87.79
2023-03-03T19:25:18.841Z,89.15
2023-03-03T19:30:37.552Z,88.78
2023-03-03T19:35:54.707Z,91.83
2023-03-03T19:41:01.032Z,88.85
2023-03-03T19:46:17.016Z,89.82
2023-03-03T19:51:26.946Z,88.84
2023-03-03T19:56:38.146Z,89.54
2023-03-03T20:01:49.552Z,88.78
2023-03-03T20:07:08.522Z,90.85
2023-03-03T20:12:20.847Z,91.15
2023-03-03T20:17:43.959Z,91.08
2023-03-03T20:22:52.520Z,92.21
2023-03-03T20:28:00.243Z,91.11
2023-03-03T20:33:12.552Z,90.79
2023-03-03T20:38:26.822Z,91.67
2023-03-03T20:43:43.086Z,91.96
2023-03-03T20:49:03.164Z,91.78
2023-03-03T20:54:13.381Z,90.14
2023-03-03T20:59:21.839Z,89.13
2023-03-03T21:04:24.075Z,89.09
2023-03-03T21:09:30.646Z,89.42
2023-03-03T21:14:31.622Z,89.78
2023-03-03T21:19:32.563Z,89.77
2023-03-03T21:24:54.482Z,89.95
2023-03-03T21:30:04.697Z,88.16
2023-03-03T21:35:08.663Z,88.04
2023-03-03T21:40:20.798Z,86.63
2023-03-03T21:45:21.385Z,86.43
2023-03-03T21:50:21.566Z,86.82
2023-03-03T21:55:21.768Z,86.62
2023-03-03T22:00:21.660Z,85.79
2023-03-03T22:05:20.464Z,86.70
2023-03-03T22:10:19.323Z,86.54
2023-03-03T22:15:19.616Z,85.98
2023-03-03T22:20:18.675Z,85.72
2023-03-03T22:25:17.679Z,85.45
2023-03-03T22:30:16.980Z,85.16
2023-03-03T22:35:19.660Z,85.48
2023-03-03T22:40:18.924Z,85.07
2023-03-03T22:45:17.853Z,85.42
2023-03-03T22:50:19.464Z,84.95
2023-03-03T22:55:18.339Z,84.22
2023-03-03T23:00:17.652Z,84.47
2023-03-03T23:05:16.338Z,84.14
2023-03-03T23:10:16.592Z,84.15
2023-03-03T23:15:15.958Z,83.88
2023-03-03T23:20:16.558Z,83.62
2023-03-03T23:25:17.149Z,83.21
2023-03-03T23:30:17.979Z,83.38
2023-03-03T23:35:17.315Z,83.46
2023-03-03T23:40:18.608Z,83.29
2023-03-03T23:45:17.728Z,83.05
2023-03-03T23:50:16.731Z,82.65
2023-03-03T23:55:15.528Z,82.64
